sensor_id;sensor_type;location;lat;lon;timestamp;pressure;altitude;pressure_sealevel;temperature;humidity
68669;BME280;55652;49.454;7.798;2022-07-21T11:51:56;99042.91;;;27.83;52.24
68669;BME280;55652;49.454;7.798;2022-07-21T11:56:51;99049.84;;;28.15;53.40
68669;BME280;55652;49.454;7.798;2022-07-21T16:37:48;98949.69;;;28.55;50.08
68669;BME280;55652;49.454;7.798;2022-07-21T16:40:16;98948.13;;;28.73;51.60
68669;BME280;55652;49.454;7.798;2022-07-21T16:42:47;98938.56;;;28.89;51.67
68669;BME280;55652;49.454;7.798;2022-07-21T16:45:14;98947.72;;;29.04;51.05
68669;BME280;55652;49.454;7.798;2022-07-21T16:47:40;98939.38;;;29.14;50.36
68669;BME280;55652;49.454;7.798;2022-07-21T16:50:05;98937.00;;;29.26;51.32
68669;BME280;55652;49.454;7.798;2022-07-21T16:52:31;98945.63;;;29.38;50.98
68669;BME280;55652;49.454;7.798;2022-07-21T16:54:56;98945.06;;;29.41;51.31
68669;BME280;55652;49.454;7.798;2022-07-21T16:57:21;98952.66;;;29.50;50.64
68669;BME280;55652;49.454;7.798;2022-07-21T16:59:47;98943.09;;;29.61;49.19
68669;BME280;55652;49.454;7.798;2022-07-21T17:02:12;98943.88;;;29.67;50.15
68669;BME280;55652;49.454;7.798;2022-07-21T17:04:37;98954.00;;;29.71;48.09
68669;BME280;55652;49.454;7.798;2022-07-21T17:07:03;98948.09;;;29.78;47.95
68669;BME280;55652;49.454;7.798;2022-07-21T17:09:28;98945.06;;;29.79;48.77
68669;BME280;55652;49.454;7.798;2022-07-21T17:11:54;98935.06;;;29.83;48.46
68669;BME280;55652;49.454;7.798;2022-07-21T17:14:19;98951.50;;;29.89;48.53
68669;BME280;55652;49.454;7.798;2022-07-21T17:16:44;98941.72;;;29.96;48.11
68669;BME280;55652;49.454;7.798;2022-07-21T17:19:10;98943.28;;;30.02;47.35
68669;BME280;55652;49.454;7.798;2022-07-21T17:21:35;98940.22;;;30.04;47.62
68669;BME280;55652;49.454;7.798;2022-07-21T17:24:00;98933.00;;;30.08;47.34
68669;BME280;55652;49.454;7.798;2022-07-21T17:26:26;98933.50;;;30.10;47.41
68669;BME280;55652;49.454;7.798;2022-07-21T17:28:51;98940.06;;;30.14;47.45
68669;BME280;55652;49.454;7.798;2022-07-21T17:31:16;98944.75;;;30.14;47.33
68669;BME280;55652;49.454;7.798;2022-07-21T17:33:42;98933.41;;;30.15;47.46
68669;BME280;55652;49.454;7.798;2022-07-21T17:36:07;98943.34;;;30.16;47.25
68669;BME280;55652;49.454;7.798;2022-07-21T17:38:32;98941.91;;;30.19;47.20
68669;BME280;55652;49.454;7.798;2022-07-21T17:40:58;98947.09;;;30.20;47.01
68669;BME280;55652;49.454;7.798;2022-07-21T17:43:26;98945.16;;;30.21;47.15
68669;BME280;55652;49.454;7.798;2022-07-21T17:45:52;98950.09;;;30.24;47.01
68669;BME280;55652;49.454;7.798;2022-07-21T17:48:17;98943.16;;;30.26;47.02
68669;BME280;55652;49.454;7.798;2022-07-21T17:50:43;98947.84;;;30.26;47.05
68669;BME280;55652;49.454;7.798;2022-07-21T17:53:08;98942.56;;;30.30;47.07
68669;BME280;55652;49.454;7.798;2022-07-21T17:55:33;98948.59;;;30.32;46.99
68669;BME280;55652;49.454;7.798;2022-07-21T17:57:59;98948.59;;;30.32;46.81
68669;BME280;55652;49.454;7.798;2022-07-21T18:00:43;98958.50;;;30.33;46.98
68669;BME280;55652;49.454;7.798;2022-07-21T18:03:08;98954.41;;;30.30;46.85
68669;BME280;55652;49.454;7.798;2022-07-21T18:05:33;98957.38;;;30.34;46.77
68669;BME280;55652;49.454;7.798;2022-07-21T18:07:59;98949.72;;;30.31;46.94
68669;BME280;55652;49.454;7.798;2022-07-21T18:10:25;98954.63;;;30.34;46.56
68669;BME280;55652;49.454;7.798;2022-07-21T18:12:50;98955.13;;;30.36;46.79
68669;BME280;55652;49.454;7.798;2022-07-21T18:15:16;98960.66;;;30.36;46.64
68669;BME280;55652;49.454;7.798;2022-07-21T18:17:41;98956.75;;;30.37;46.63
68669;BME280;55652;49.454;7.798;2022-07-21T18:20:08;98957.56;;;30.37;46.83
68669;BME280;55652;49.454;7.798;2022-07-21T18:22:33;98954.22;;;30.40;46.76
68669;BME280;55652;49.454;7.798;2022-07-21T18:24:59;98963.22;;;30.46;48.38
68669;BME280;55652;49.454;7.798;2022-07-21T18:27:25;98962.63;;;30.49;46.90
68669;BME280;55652;49.454;7.798;2022-07-21T18:29:51;98947.06;;;30.53;46.65
68669;BME280;55652;49.454;7.798;2022-07-21T18:32:16;98950.16;;;30.52;48.89
68669;BME280;55652;49.454;7.798;2022-07-21T18:34:41;98959.34;;;30.47;47.08
68669;BME280;55652;49.454;7.798;2022-07-21T18:37:07;98955.66;;;30.52;47.66
68669;BME280;55652;49.454;7.798;2022-07-21T18:39:32;98951.16;;;30.56;46.86
68669;BME280;55652;49.454;7.798;2022-07-21T18:41:58;98958.53;;;30.60;46.71
68669;BME280;55652;49.454;7.798;2022-07-21T18:44:23;98956.28;;;30.62;47.09
68669;BME280;55652;49.454;7.798;2022-07-21T18:46:48;98960.38;;;30.65;47.42
68669;BME280;55652;49.454;7.798;2022-07-21T18:49:14;98954.25;;;30.68;46.98
68669;BME280;55652;49.454;7.798;2022-07-21T18:51:39;98953.44;;;30.67;46.85
68669;BME280;55652;49.454;7.798;2022-07-21T18:54:04;98952.72;;;30.62;46.78
68669;BME280;55652;49.454;7.798;2022-07-21T18:56:30;98964.56;;;30.62;46.73
68669;BME280;55652;49.454;7.798;2022-07-21T18:58:55;98962.94;;;30.61;46.59
68669;BME280;55652;49.454;7.798;2022-07-21T19:01:21;98965.38;;;30.63;46.63
68669;BME280;55652;49.454;7.798;2022-07-21T19:03:46;98966.00;;;30.60;46.84
68669;BME280;55652;49.454;7.798;2022-07-21T19:06:12;98964.84;;;30.61;46.95
68669;BME280;55652;49.454;7.798;2022-07-21T19:08:37;98968.47;;;30.61;47.46
68669;BME280;55652;49.454;7.798;2022-07-21T19:11:03;98973.03;;;30.66;47.51
